createdAt,value
2022-12-03T00:01:03.016Z,-0.10
2022-12-03T00:03:30.462Z,0.50
2022-12-03T00:05:57.869Z,-0.10
2022-12-03T00:08:27.444Z,-0.10
2022-12-03T00:10:54.461Z,-0.10
2022-12-03T00:13:24.289Z,2.00
2022-12-03T00:15:51.443Z,-0.10
2022-12-03T00:18:18.857Z,0.20
2022-12-03T00:20:46.236Z,-0.10
2022-12-03T00:23:16.150Z,0.70
2022-12-03T00:25:43.246Z,-0.10
2022-12-03T00:28:10.831Z,-0.10
2022-12-03T00:30:37.999Z,-0.10
2022-12-03T00:33:05.315Z,-0.20
2022-12-03T00:35:35.161Z,-0.30
2022-12-03T00:38:02.476Z,-0.20
2022-12-03T00:40:31.721Z,1.10
2022-12-03T00:57:45.579Z,0.30
2022-12-03T01:00:13.256Z,0.10
2022-12-03T01:02:40.638Z,0.20
2022-12-03T01:05:08.483Z,0.20
2022-12-03T01:07:35.858Z,0.10
2022-12-03T01:10:06.505Z,0.00
2022-12-03T01:12:34.095Z,-0.10
2022-12-03T01:15:01.106Z,-0.20
2022-12-03T01:17:28.534Z,-0.30
2022-12-03T01:19:55.893Z,-0.30
2022-12-03T01:22:25.518Z,-0.30
2022-12-03T01:24:52.872Z,-0.30
2022-12-03T01:27:20.521Z,-0.30
2022-12-03T01:29:47.491Z,-0.20
2022-12-03T01:32:19.024Z,-0.30
2022-12-03T01:34:50.833Z,-0.20
2022-12-03T01:37:20.342Z,-0.20
2022-12-03T01:39:47.712Z,-0.20
2022-12-03T01:42:39.430Z,-0.20
2022-12-03T01:45:10.042Z,-0.10
2022-12-03T01:47:38.465Z,-0.20
2022-12-03T01:50:22.355Z,-0.20
2022-12-03T01:52:55.882Z,-0.20
2022-12-03T01:55:26.206Z,-0.20
2022-12-03T01:57:57.434Z,-0.20
2022-12-03T02:00:25.992Z,-0.20
2022-12-03T02:02:58.463Z,-0.10
2022-12-03T02:05:28.452Z,-0.20
2022-12-03T02:07:56.370Z,-0.10
2022-12-03T02:10:32.533Z,-0.10
2022-12-03T02:13:02.938Z,-0.10
2022-12-03T02:15:32.772Z,0.00
2022-12-03T02:18:00.512Z,-0.10
2022-12-03T02:20:27.815Z,-0.10
2022-12-03T02:23:35.891Z,-0.10
2022-12-03T02:26:03.477Z,0.00
2022-12-03T02:28:33.191Z,-0.10
2022-12-03T02:31:02.718Z,0.00
2022-12-03T02:33:32.520Z,0.00
2022-12-03T02:36:03.621Z,-0.10
2022-12-03T02:38:33.515Z,-0.10
2022-12-03T02:41:04.507Z,-0.10
2022-12-03T02:43:31.962Z,-0.20
2022-12-03T02:46:03.592Z,-0.20
2022-12-03T02:48:37.085Z,-0.10
2022-12-03T02:51:11.268Z,-0.10
2022-12-03T02:53:42.631Z,-0.20
2022-12-03T02:56:15.937Z,-0.20
2022-12-03T02:58:46.904Z,-0.10
2022-12-03T03:03:51.221Z,0.00
2022-12-03T03:06:20.258Z,0.00
2022-12-03T03:08:50.055Z,0.10
2022-12-03T03:11:17.596Z,0.00
2022-12-03T03:13:44.805Z,-0.10
2022-12-03T03:16:27.444Z,-0.30
2022-12-03T03:18:54.825Z,-0.20
2022-12-03T03:21:22.290Z,-0.20
2022-12-03T03:23:49.495Z,-0.20
2022-12-03T03:26:19.791Z,-0.30
2022-12-03T03:28:51.054Z,-0.30
2022-12-03T03:31:22.704Z,-0.20
2022-12-03T03:33:54.461Z,-0.20
2022-12-03T03:36:25.361Z,-0.30
2022-12-03T03:38:53.060Z,-0.20
2022-12-03T03:41:23.136Z,-0.20
2022-12-03T03:43:50.506Z,-0.20
2022-12-03T03:46:19.309Z,-0.20
2022-12-03T03:48:49.614Z,-0.20
2022-12-03T03:51:18.372Z,-0.30
2022-12-03T03:53:48.251Z,-0.30
2022-12-03T03:56:17.672Z,-0.30
2022-12-03T03:58:44.800Z,-0.30
2022-12-03T04:01:17.047Z,-0.30
2022-12-03T04:03:44.414Z,-0.30
2022-12-03T04:06:14.038Z,-0.30
2022-12-03T04:08:41.250Z,-0.30
2022-12-03T04:11:09.566Z,-0.30
2022-12-03T04:13:36.743Z,-0.30
2022-12-03T04:16:04.461Z,-0.30
2022-12-03T04:18:31.543Z,-0.30
2022-12-03T04:21:03.045Z,-0.30
2022-12-03T04:23:31.115Z,-0.40
2022-12-03T04:26:01.023Z,-0.40
2022-12-03T04:28:30.647Z,-0.40
2022-12-03T04:30:58.091Z,-0.40
2022-12-03T04:33:27.710Z,-0.30
2022-12-03T04:35:55.301Z,-0.30
2022-12-03T04:38:24.551Z,-0.30
2022-12-03T04:40:54.105Z,-0.30
2022-12-03T04:43:23.610Z,-0.30
2022-12-03T04:45:51.213Z,-0.30
2022-12-03T04:48:20.984Z,-0.30
2022-12-03T04:50:48.536Z,-0.30
2022-12-03T04:53:18.193Z,-0.30
2022-12-03T04:55:45.576Z,-0.30
2022-12-03T04:58:12.818Z,-0.30
2022-12-03T05:00:40.145Z,-0.20
2022-12-03T05:03:09.685Z,-0.20
2022-12-03T05:05:41.726Z,-0.20
2022-12-03T05:08:08.765Z,-0.10
2022-12-03T05:10:36.165Z,-0.10
2022-12-03T05:13:03.235Z,-0.10
2022-12-03T05:15:30.593Z,-0.10
2022-12-03T05:17:59.859Z,-0.10
2022-12-03T05:20:27.371Z,-0.10
2022-12-03T05:22:54.397Z,-0.10
2022-12-03T05:25:21.736Z,-0.10
2022-12-03T05:27:51.303Z,0.00
2022-12-03T05:30:18.728Z,0.00
2022-12-03T05:32:48.160Z,0.00
2022-12-03T05:35:16.078Z,0.10
2022-12-03T05:37:43.328Z,0.10
2022-12-03T05:40:11.720Z,0.10
2022-12-03T05:42:39.221Z,0.00
2022-12-03T05:45:07.128Z,0.00
2022-12-03T05:47:34.139Z,-0.10
2022-12-03T05:50:01.888Z,-0.10
2022-12-03T05:52:31.117Z,-0.10
2022-12-03T05:54:58.454Z,0.00
2022-12-03T05:57:25.771Z,0.00
2022-12-03T05:59:53.131Z,0.00
2022-12-03T06:02:22.502Z,0.00
2022-12-03T06:04:50.516Z,0.00
2022-12-03T06:07:19.986Z,0.00
2022-12-03T06:09:47.351Z,0.00
2022-12-03T06:12:16.764Z,0.00
2022-12-03T06:14:46.272Z,0.10
2022-12-03T06:17:15.603Z,0.10
2022-12-03T06:19:43.088Z,0.10
2022-12-03T06:22:10.077Z,0.20
2022-12-03T06:24:39.931Z,0.20
2022-12-03T06:27:11.727Z,0.30
2022-12-03T06:29:39.137Z,0.30
2022-12-03T06:32:06.316Z,0.30
2022-12-03T06:34:34.185Z,0.30
2022-12-03T06:37:01.307Z,0.30
2022-12-03T06:39:28.883Z,0.20
2022-12-03T06:41:56.051Z,0.20
2022-12-03T06:44:25.822Z,0.20
2022-12-03T06:46:52.933Z,0.20
2022-12-03T06:49:20.415Z,0.20
2022-12-03T06:51:49.717Z,0.20
2022-12-03T06:54:21.809Z,0.20
2022-12-03T06:56:49.122Z,0.10
2022-12-03T06:59:16.448Z,0.10
2022-12-03T07:01:43.529Z,0.20
2022-12-03T07:04:11.076Z,0.10
2022-12-03T07:06:38.076Z,0.20
2022-12-03T07:09:07.947Z,0.30
2022-12-03T07:11:35.243Z,0.40
2022-12-03T07:14:07.398Z,0.40
2022-12-03T07:16:35.919Z,0.50
2022-12-03T07:19:08.974Z,0.50
2022-12-03T07:21:36.048Z,0.50
2022-12-03T07:24:03.593Z,0.60
2022-12-03T07:26:30.850Z,0.60
2022-12-03T07:29:00.888Z,0.70
2022-12-03T07:31:28.146Z,0.70
2022-12-03T07:33:55.703Z,0.80
2022-12-03T07:36:24.961Z,0.80
2022-12-03T07:38:52.327Z,0.80
2022-12-03T07:41:19.527Z,0.80
2022-12-03T07:43:46.860Z,0.80
2022-12-03T07:46:14.075Z,0.80
2022-12-03T07:48:44.110Z,0.90
2022-12-03T07:51:15.274Z,1.00
2022-12-03T07:53:43.300Z,1.00
2022-12-03T07:56:12.613Z,1.00
2022-12-03T07:58:40.026Z,1.10
2022-12-03T08:01:09.785Z,1.20
2022-12-03T08:03:38.063Z,1.20
2022-12-03T08:06:07.658Z,1.30
2022-12-03T08:08:35.282Z,1.30
2022-12-03T08:11:02.428Z,1.40
2022-12-03T08:13:34.062Z,1.50
2022-12-03T08:16:10.289Z,1.50
2022-12-03T08:18:37.683Z,1.50
2022-12-03T08:21:14.556Z,1.60
2022-12-03T08:23:42.499Z,1.60
2022-12-03T08:26:17.578Z,1.60
2022-12-03T08:28:44.975Z,1.60
2022-12-03T08:31:32.465Z,1.70
2022-12-03T08:34:17.225Z,1.60
2022-12-03T08:36:45.457Z,1.50
2022-12-03T08:39:32.002Z,1.50
2022-12-03T08:42:13.580Z,1.60
2022-12-03T08:44:41.432Z,1.60
2022-12-03T08:47:19.549Z,1.70
2022-12-03T08:50:00.421Z,1.80
2022-12-03T08:52:33.159Z,1.70
2022-12-03T08:55:10.714Z,1.60
2022-12-03T08:57:38.039Z,1.60
2022-12-03T09:00:22.535Z,1.60
2022-12-03T09:02:55.302Z,1.50
2022-12-03T09:05:28.071Z,1.30
2022-12-03T09:07:55.441Z,1.30
2022-12-03T09:10:22.834Z,1.40
2022-12-03T09:12:52.100Z,1.50
2022-12-03T09:15:19.756Z,1.60
2022-12-03T09:17:46.898Z,1.70
2022-12-03T09:20:16.434Z,1.90
2022-12-03T09:22:43.623Z,2.00
2022-12-03T09:25:10.977Z,2.00
2022-12-03T09:27:38.009Z,2.10
2022-12-03T09:30:06.484Z,2.10
2022-12-03T09:32:35.992Z,2.10
2022-12-03T09:35:06.261Z,2.10
2022-12-03T09:37:35.653Z,2.10
2022-12-03T09:40:03.353Z,2.20
2022-12-03T09:42:30.453Z,2.20
2022-12-03T09:44:58.228Z,2.20
2022-12-03T09:47:25.457Z,2.10
2022-12-03T09:49:53.229Z,2.20
2022-12-03T09:52:26.714Z,2.20
2022-12-03T09:54:58.535Z,2.20
2022-12-03T09:57:28.384Z,2.30
2022-12-03T09:59:58.912Z,2.30
2022-12-03T10:02:29.826Z,2.40
2022-12-03T10:04:59.981Z,2.40
2022-12-03T10:07:27.303Z,2.40
2022-12-03T10:09:57.373Z,2.50
2022-12-03T10:12:26.908Z,2.50
2022-12-03T10:14:55.891Z,2.50
2022-12-03T10:17:26.259Z,2.60
2022-12-03T10:19:53.746Z,2.60
2022-12-03T10:22:23.960Z,2.70
2022-12-03T10:25:09.466Z,2.70
2022-12-03T10:27:39.809Z,2.70
2022-12-03T10:30:19.365Z,2.70
2022-12-03T10:32:51.230Z,2.70
2022-12-03T10:35:26.832Z,2.70
2022-12-03T10:38:02.537Z,2.70
2022-12-03T10:40:35.402Z,2.70
2022-12-03T10:43:23.271Z,2.80
2022-12-03T10:45:51.992Z,2.80
2022-12-03T10:48:24.480Z,2.80
2022-12-03T10:50:55.936Z,2.80
2022-12-03T10:53:28.851Z,2.90
2022-12-03T10:55:58.522Z,2.80
2022-12-03T10:58:35.232Z,2.80
2022-12-03T11:01:06.626Z,2.80
2022-12-03T11:03:36.764Z,2.80
2022-12-03T11:06:04.518Z,2.90
2022-12-03T11:08:36.499Z,2.90
2022-12-03T11:11:16.120Z,2.90
2022-12-03T11:13:45.018Z,2.90
2022-12-03T11:16:33.086Z,3.00
2022-12-03T11:19:03.366Z,3.00
2022-12-03T11:21:31.274Z,3.00
2022-12-03T11:24:02.234Z,3.00
2022-12-03T11:26:29.707Z,3.00
2022-12-03T11:28:58.240Z,3.00
2022-12-03T11:31:42.237Z,3.00
2022-12-03T11:34:18.563Z,3.00
2022-12-03T11:37:07.939Z,3.10
2022-12-03T11:40:24.200Z,3.10
2022-12-03T11:42:51.636Z,3.10
2022-12-03T11:45:37.525Z,3.10
2022-12-03T11:48:12.664Z,3.00
2022-12-03T11:50:53.048Z,3.10
2022-12-03T11:53:24.859Z,3.00
2022-12-03T11:56:04.571Z,3.00
2022-12-03T11:58:36.136Z,3.10
2022-12-03T12:01:07.978Z,3.10
2022-12-03T12:03:49.259Z,3.10
2022-12-03T12:06:19.566Z,3.00
2022-12-03T12:08:49.784Z,3.10
2022-12-03T12:11:28.692Z,3.10
2022-12-03T12:13:59.895Z,3.10
2022-12-03T12:16:48.397Z,3.10
2022-12-03T12:19:34.023Z,3.10
2022-12-03T12:22:22.314Z,3.10
2022-12-03T12:24:52.291Z,3.00
2022-12-03T12:27:37.483Z,3.00
2022-12-03T12:30:09.111Z,3.00
2022-12-03T12:32:51.778Z,3.00
2022-12-03T12:35:30.296Z,3.00
2022-12-03T12:38:07.068Z,3.00
2022-12-03T12:40:37.490Z,3.00
2022-12-03T12:43:15.330Z,3.00
2022-12-03T12:45:44.899Z,3.00
2022-12-03T12:48:23.088Z,2.90
2022-12-03T12:51:09.350Z,2.80
2022-12-03T12:53:38.813Z,2.80
2022-12-03T12:56:35.014Z,2.70
2022-12-03T12:59:10.275Z,2.70
2022-12-03T13:01:40.522Z,2.80
2022-12-03T13:04:17.494Z,2.80
2022-12-03T13:06:50.498Z,2.80
2022-12-03T13:09:23.495Z,2.80
2022-12-03T13:11:57.124Z,2.80
2022-12-03T13:14:31.706Z,2.80
2022-12-03T13:17:10.923Z,2.80
2022-12-03T13:19:48.267Z,2.80
2022-12-03T13:22:22.977Z,2.80
2022-12-03T13:24:51.334Z,2.80
2022-12-03T13:27:18.615Z,2.80
2022-12-03T13:30:08.475Z,2.80
2022-12-03T13:32:39.011Z,2.80
2022-12-03T13:35:10.560Z,2.80
2022-12-03T13:37:42.613Z,2.70
2022-12-03T13:40:20.444Z,2.80
2022-12-03T13:42:47.799Z,2.80
2022-12-03T13:45:14.994Z,2.80
2022-12-03T13:47:47.500Z,2.80
2022-12-03T13:50:39.507Z,2.80
2022-12-03T13:53:06.910Z,2.80
2022-12-03T13:55:34.343Z,2.80
2022-12-03T13:58:01.691Z,2.80
2022-12-03T14:00:33.739Z,2.70
2022-12-03T14:03:06.143Z,2.70
2022-12-03T14:05:33.262Z,2.70
2022-12-03T14:08:00.742Z,2.70
2022-12-03T14:10:31.101Z,2.60
2022-12-03T14:12:58.807Z,2.70
2022-12-03T14:15:25.860Z,2.70
2022-12-03T14:17:55.463Z,2.70
2022-12-03T14:20:22.748Z,2.60
2022-12-03T14:22:52.021Z,2.70
2022-12-03T14:25:23.590Z,2.70
2022-12-03T14:27:50.904Z,2.70
2022-12-03T14:30:17.925Z,2.70
2022-12-03T14:32:47.907Z,2.60
2022-12-03T14:35:15.040Z,2.60
2022-12-03T14:37:42.744Z,2.50
2022-12-03T14:40:10.261Z,2.40
2022-12-03T14:42:37.937Z,2.30
2022-12-03T14:45:05.372Z,2.20
2022-12-03T14:47:32.855Z,2.20
2022-12-03T14:49:59.999Z,2.20
2022-12-03T14:52:27.429Z,2.20
2022-12-03T14:54:54.533Z,2.20
2022-12-03T14:57:21.785Z,2.20
2022-12-03T14:59:48.788Z,2.20
2022-12-03T15:02:16.323Z,2.20
2022-12-03T15:04:43.722Z,2.20
2022-12-03T15:07:13.308Z,2.00
2022-12-03T15:09:40.877Z,1.90
2022-12-03T15:12:08.442Z,1.90
2022-12-03T15:14:37.799Z,1.90
2022-12-03T15:17:07.689Z,1.90
2022-12-03T15:19:34.775Z,1.80
2022-12-03T15:22:04.639Z,1.90
2022-12-03T15:24:34.835Z,1.90
2022-12-03T15:27:02.348Z,1.90
2022-12-03T15:29:31.624Z,1.90
2022-12-03T15:31:59.347Z,1.80
2022-12-03T15:34:26.809Z,1.60
2022-12-03T15:36:54.212Z,1.50
2022-12-03T15:39:21.467Z,1.50
2022-12-03T15:41:48.874Z,1.50
2022-12-03T15:44:15.921Z,1.30
2022-12-03T15:46:43.599Z,1.30
2022-12-03T15:49:13.035Z,1.30
2022-12-03T15:51:42.918Z,1.30
2022-12-03T15:54:10.150Z,1.10
2022-12-03T15:56:39.682Z,1.10
2022-12-03T15:59:06.652Z,1.10
2022-12-03T16:01:34.188Z,1.10
2022-12-03T16:04:03.897Z,1.10
2022-12-03T16:06:31.287Z,1.10
2022-12-03T16:08:58.540Z,1.10
2022-12-03T16:11:25.835Z,1.00
2022-12-03T16:13:52.882Z,0.90
2022-12-03T16:16:20.329Z,0.90
2022-12-03T16:18:49.641Z,1.00
2022-12-03T16:21:23.547Z,1.10
2022-12-03T16:23:54.543Z,1.00
2022-12-03T16:26:22.751Z,1.00
2022-12-03T16:28:52.249Z,1.00
2022-12-03T16:31:19.885Z,1.00
2022-12-03T16:33:49.793Z,0.90
2022-12-03T16:36:17.324Z,1.00
2022-12-03T16:38:44.722Z,1.00
2022-12-03T16:41:12.118Z,1.10
2022-12-03T16:43:39.231Z,1.10
2022-12-03T16:46:07.422Z,1.10
2022-12-03T16:48:36.438Z,1.10
2022-12-03T16:51:03.962Z,1.10
2022-12-03T16:53:31.488Z,1.10
2022-12-03T16:55:58.810Z,1.10
2022-12-03T16:58:25.918Z,1.00
2022-12-03T17:00:53.440Z,1.10
2022-12-03T17:03:21.418Z,1.10
2022-12-03T17:05:51.464Z,1.10
2022-12-03T17:08:18.892Z,1.10
2022-12-03T17:10:46.470Z,1.20
2022-12-03T17:13:13.576Z,1.20
2022-12-03T17:15:43.839Z,1.30
2022-12-03T17:18:13.458Z,1.30
2022-12-03T17:20:40.752Z,1.30
2022-12-03T17:23:08.206Z,1.30
2022-12-03T17:25:35.617Z,1.30
2022-12-03T17:28:05.347Z,1.30
2022-12-03T17:30:33.141Z,1.30
2022-12-03T17:33:00.308Z,1.30
2022-12-03T17:35:27.641Z,1.30
2022-12-03T17:37:55.284Z,1.30
2022-12-03T17:40:22.915Z,1.30
2022-12-03T17:42:49.962Z,1.30
2022-12-03T17:45:19.902Z,1.30
2022-12-03T17:47:46.991Z,1.30
2022-12-03T17:50:16.602Z,1.30
2022-12-03T17:52:46.118Z,1.30
2022-12-03T17:55:24.166Z,1.30
2022-12-03T17:57:55.439Z,1.40
2022-12-03T18:00:22.982Z,1.40
2022-12-03T18:02:52.532Z,1.40
2022-12-03T18:05:22.591Z,1.50
2022-12-03T18:07:50.661Z,1.50
2022-12-03T18:10:18.264Z,1.50
2022-12-03T18:12:45.483Z,1.50
2022-12-03T18:15:12.838Z,1.50
2022-12-03T18:17:39.880Z,1.50
2022-12-03T18:20:10.201Z,1.60
2022-12-03T18:22:40.057Z,1.60
2022-12-03T18:25:08.483Z,1.60
2022-12-03T18:27:35.820Z,1.70
2022-12-03T18:30:03.438Z,1.70
2022-12-03T18:32:30.740Z,1.70
2022-12-03T18:34:58.525Z,1.80
2022-12-03T18:37:31.743Z,1.80
2022-12-03T18:39:59.808Z,1.80
2022-12-03T18:42:27.438Z,1.80
2022-12-03T18:44:56.221Z,1.80
2022-12-03T18:47:28.406Z,1.80
2022-12-03T18:49:58.550Z,1.80
2022-12-03T18:52:26.049Z,1.80
2022-12-03T18:54:56.102Z,1.80
2022-12-03T18:57:23.309Z,1.90
2022-12-03T18:59:53.536Z,1.90
2022-12-03T19:05:09.649Z,1.90
2022-12-03T19:07:39.346Z,2.00
2022-12-03T19:10:07.450Z,2.00
2022-12-03T19:12:37.670Z,2.10
2022-12-03T19:15:07.986Z,2.20
2022-12-03T19:17:35.411Z,2.20
2022-12-03T19:20:02.966Z,2.20
2022-12-03T19:22:31.153Z,2.30
2022-12-03T19:24:58.584Z,2.30
2022-12-03T19:27:25.749Z,2.40
2022-12-03T19:29:53.387Z,2.40
2022-12-03T19:32:21.014Z,2.50
2022-12-03T19:34:48.985Z,2.50
2022-12-03T19:37:18.475Z,2.50
2022-12-03T19:39:45.949Z,2.50
2022-12-03T19:42:13.149Z,2.60
2022-12-03T19:44:40.447Z,2.60
2022-12-03T19:47:09.922Z,2.50
2022-12-03T19:49:37.407Z,2.40
2022-12-03T19:52:06.961Z,2.40
2022-12-03T19:54:34.332Z,2.40
2022-12-03T19:57:03.747Z,2.50
2022-12-03T19:59:31.211Z,2.50
2022-12-03T20:02:02.962Z,2.50
2022-12-03T20:04:30.695Z,2.50
2022-12-03T20:06:57.798Z,2.60
2022-12-03T20:09:25.127Z,2.70
2022-12-03T20:11:52.207Z,2.70
2022-12-03T20:14:22.160Z,2.80
2022-12-03T20:16:49.605Z,2.80
2022-12-03T20:19:17.752Z,2.80
2022-12-03T20:21:44.991Z,2.80
2022-12-03T20:24:17.311Z,2.80
2022-12-03T20:26:47.047Z,2.80
2022-12-03T20:29:14.395Z,2.90
2022-12-03T20:31:41.699Z,2.90
2022-12-03T20:34:10.994Z,3.00
2022-12-03T20:36:38.046Z,3.10
2022-12-03T20:39:07.061Z,3.10
2022-12-03T20:41:37.798Z,3.20
2022-12-03T20:44:08.073Z,3.30
2022-12-03T20:46:35.640Z,3.30
2022-12-03T20:49:04.096Z,3.30
2022-12-03T20:51:31.806Z,3.30
2022-12-03T20:54:01.008Z,3.30
2022-12-03T20:56:35.729Z,3.30
2022-12-03T20:59:06.469Z,3.40
2022-12-03T21:01:36.875Z,3.40
2022-12-03T21:04:08.186Z,3.40
2022-12-03T21:06:36.369Z,3.40
2022-12-03T21:09:08.201Z,3.40
2022-12-03T21:11:39.226Z,3.40
2022-12-03T21:14:07.440Z,3.40
2022-12-03T21:17:07.833Z,3.40
2022-12-03T21:19:27.843Z,3.40
2022-12-03T21:21:57.294Z,3.50
2022-12-03T21:24:24.703Z,3.50
2022-12-03T21:26:54.233Z,3.50
2022-12-03T21:29:22.038Z,3.50
2022-12-03T21:31:49.112Z,3.50
2022-12-03T21:34:19.146Z,3.50
2022-12-03T21:36:48.620Z,3.50
2022-12-03T21:39:15.963Z,3.50
2022-12-03T21:42:19.086Z,3.50
2022-12-03T21:44:33.063Z,3.50
2022-12-03T21:47:11.454Z,3.50
2022-12-03T21:49:41.489Z,3.50
2022-12-03T21:52:08.990Z,3.40
2022-12-03T21:54:36.389Z,3.40
2022-12-03T21:57:05.774Z,3.40
2022-12-03T21:59:35.834Z,3.40
2022-12-03T22:02:03.203Z,3.40
2022-12-03T22:04:33.023Z,3.40
2022-12-03T22:07:02.755Z,3.40
2022-12-03T22:09:31.367Z,3.40
2022-12-03T22:12:01.107Z,3.50
2022-12-03T22:14:30.940Z,3.40
2022-12-03T22:16:57.963Z,3.40
2022-12-03T22:19:26.285Z,3.40
2022-12-03T22:21:53.421Z,3.40
2022-12-03T22:24:23.205Z,3.30
2022-12-03T22:26:50.256Z,3.30
2022-12-03T22:29:20.311Z,3.30
2022-12-03T22:31:47.293Z,3.30
2022-12-03T22:34:14.659Z,3.20
2022-12-03T22:36:44.224Z,3.20
2022-12-03T22:39:11.488Z,3.10
2022-12-03T22:41:38.923Z,3.00
2022-12-03T22:44:06.434Z,3.10
2022-12-03T22:46:33.801Z,3.10
2022-12-03T22:49:06.670Z,3.00
2022-12-03T22:51:35.282Z,3.10
2022-12-03T22:54:02.753Z,3.00
2022-12-03T22:56:32.825Z,3.10
2022-12-03T22:59:02.933Z,3.00
2022-12-03T23:01:38.769Z,3.10
2022-12-03T23:04:08.047Z,3.00
2022-12-03T23:06:36.571Z,3.00
2022-12-03T23:09:05.753Z,3.00
2022-12-03T23:11:35.493Z,3.00
2022-12-03T23:14:03.096Z,3.00
2022-12-03T23:16:32.715Z,3.00
2022-12-03T23:19:01.580Z,3.10
2022-12-03T23:21:33.631Z,3.10
2022-12-03T23:24:05.071Z,3.20
2022-12-03T23:26:35.903Z,3.30
2022-12-03T23:29:04.752Z,3.30
2022-12-03T23:31:35.517Z,3.30
2022-12-03T23:34:04.116Z,3.30
2022-12-03T23:36:33.106Z,3.30
2022-12-03T23:39:00.663Z,3.30
2022-12-03T23:41:28.357Z,3.30
2022-12-03T23:43:56.558Z,3.40
2022-12-03T23:46:26.002Z,3.40
2022-12-03T23:48:55.815Z,3.40
2022-12-03T23:51:26.095Z,3.40
2022-12-03T23:53:55.120Z,3.30
2022-12-03T23:56:28.148Z,3.30
2022-12-03T23:58:57.075Z,3.30
